sensor_id;sensor_type;location;lat;lon;timestamp;temperature;humidity
76787;DHT22;65739;51.482;5.702;2023-07-16T00:01:03;17.70;99.90
76787;DHT22;65739;51.482;5.702;2023-07-16T00:03:28;17.70;99.90
76787;DHT22;65739;51.482;5.702;2023-07-16T00:05:54;17.70;99.90
76787;DHT22;65739;51.482;5.702;2023-07-16T00:08:19;17.70;99.90
76787;DHT22;65739;51.482;5.702;2023-07-16T00:10:45;17.60;99.90
76787;DHT22;65739;51.482;5.702;2023-07-16T00:13:11;17.70;99.90
76787;DHT22;65739;51.482;5.702;2023-07-16T00:15:36;17.70;99.90
76787;DHT22;65739;51.482;5.702;2023-07-16T00:18:02;17.70;99.90
76787;DHT22;65739;51.482;5.702;2023-07-16T00:20:27;17.60;99.90
76787;DHT22;65739;51.482;5.702;2023-07-16T00:22:54;17.60;99.90
76787;DHT22;65739;51.482;5.702;2023-07-16T00:25:19;17.60;99.90
76787;DHT22;65739;51.482;5.702;2023-07-16T00:27:45;17.60;99.90
76787;DHT22;65739;51.482;5.702;2023-07-16T00:30:11;17.50;99.90
76787;DHT22;65739;51.482;5.702;2023-07-16T00:32:36;17.50;99.90
76787;DHT22;65739;51.482;5.702;2023-07-16T00:35:02;17.50;99.90
76787;DHT22;65739;51.482;5.702;2023-07-16T00:37:28;17.50;99.90
76787;DHT22;65739;51.482;5.702;2023-07-16T00:39:53;17.50;99.90
76787;DHT22;65739;51.482;5.702;2023-07-16T00:42:19;17.40;99.90
76787;DHT22;65739;51.482;5.702;2023-07-16T00:44:44;17.50;99.90
76787;DHT22;65739;51.482;5.702;2023-07-16T00:47:11;17.40;99.90
76787;DHT22;65739;51.482;5.702;2023-07-16T00:49:37;17.40;99.90
76787;DHT22;65739;51.482;5.702;2023-07-16T00:52:05;17.40;99.90
76787;DHT22;65739;51.482;5.702;2023-07-16T00:54:31;17.30;99.90
76787;DHT22;65739;51.482;5.702;2023-07-16T00:56:57;17.30;99.90
76787;DHT22;65739;51.482;5.702;2023-07-16T00:59:22;17.40;99.90
76787;DHT22;65739;51.482;5.702;2023-07-16T01:01:48;17.40;99.90
76787;DHT22;65739;51.482;5.702;2023-07-16T01:04:13;17.50;99.90
76787;DHT22;65739;51.482;5.702;2023-07-16T01:06:47;17.40;99.90
76787;DHT22;65739;51.482;5.702;2023-07-16T01:09:19;17.40;99.90
76787;DHT22;65739;51.482;5.702;2023-07-16T01:11:46;17.50;99.90
76787;DHT22;65739;51.482;5.702;2023-07-16T01:14:17;17.40;99.90
76787;DHT22;65739;51.482;5.702;2023-07-16T01:16:43;17.40;99.90
76787;DHT22;65739;51.482;5.702;2023-07-16T01:19:09;17.40;99.90
76787;DHT22;65739;51.482;5.702;2023-07-16T01:21:44;17.40;99.90
76787;DHT22;65739;51.482;5.702;2023-07-16T01:24:13;17.40;99.90
76787;DHT22;65739;51.482;5.702;2023-07-16T01:27:04;17.40;99.90
76787;DHT22;65739;51.482;5.702;2023-07-16T01:29:51;17.40;99.90
76787;DHT22;65739;51.482;5.702;2023-07-16T01:32:19;17.30;99.90
76787;DHT22;65739;51.482;5.702;2023-07-16T01:34:46;17.20;99.90
76787;DHT22;65739;51.482;5.702;2023-07-16T01:37:12;17.20;99.90
76787;DHT22;65739;51.482;5.702;2023-07-16T01:39:38;17.20;99.90
76787;DHT22;65739;51.482;5.702;2023-07-16T01:42:03;17.20;99.90
76787;DHT22;65739;51.482;5.702;2023-07-16T01:44:29;17.10;99.90
76787;DHT22;65739;51.482;5.702;2023-07-16T01:49:30;17.00;99.90
76787;DHT22;65739;51.482;5.702;2023-07-16T01:51:56;16.90;99.90
76787;DHT22;65739;51.482;5.702;2023-07-16T01:54:21;16.80;99.90
76787;DHT22;65739;51.482;5.702;2023-07-16T01:56:47;16.80;99.90
76787;DHT22;65739;51.482;5.702;2023-07-16T01:59:13;16.70;99.90
76787;DHT22;65739;51.482;5.702;2023-07-16T02:01:38;16.70;99.90
76787;DHT22;65739;51.482;5.702;2023-07-16T02:04:04;16.70;99.90
76787;DHT22;65739;51.482;5.702;2023-07-16T02:06:29;16.70;99.90
76787;DHT22;65739;51.482;5.702;2023-07-16T02:08:55;16.70;99.90
76787;DHT22;65739;51.482;5.702;2023-07-16T02:11:20;16.60;99.90
76787;DHT22;65739;51.482;5.702;2023-07-16T02:13:46;16.70;99.90
76787;DHT22;65739;51.482;5.702;2023-07-16T02:16:11;16.60;99.90
76787;DHT22;65739;51.482;5.702;2023-07-16T02:18:36;16.60;99.90
76787;DHT22;65739;51.482;5.702;2023-07-16T02:21:02;16.60;99.90
76787;DHT22;65739;51.482;5.702;2023-07-16T02:23:28;16.60;99.90
76787;DHT22;65739;51.482;5.702;2023-07-16T02:25:53;16.60;99.90
76787;DHT22;65739;51.482;5.702;2023-07-16T02:28:19;16.60;99.90
76787;DHT22;65739;51.482;5.702;2023-07-16T02:30:44;16.60;99.90
76787;DHT22;65739;51.482;5.702;2023-07-16T02:33:10;16.60;99.90
76787;DHT22;65739;51.482;5.702;2023-07-16T02:35:35;16.60;99.90
76787;DHT22;65739;51.482;5.702;2023-07-16T02:38:01;16.70;99.90
76787;DHT22;65739;51.482;5.702;2023-07-16T02:40:26;16.70;99.90
76787;DHT22;65739;51.482;5.702;2023-07-16T02:42:52;16.80;99.90
76787;DHT22;65739;51.482;5.702;2023-07-16T02:45:17;16.70;99.90
76787;DHT22;65739;51.482;5.702;2023-07-16T02:47:43;16.60;99.90
76787;DHT22;65739;51.482;5.702;2023-07-16T02:50:09;16.60;99.90
76787;DHT22;65739;51.482;5.702;2023-07-16T02:52:35;16.50;99.90
76787;DHT22;65739;51.482;5.702;2023-07-16T02:55:00;16.40;99.90
76787;DHT22;65739;51.482;5.702;2023-07-16T02:57:26;16.40;99.90
76787;DHT22;65739;51.482;5.702;2023-07-16T02:59:51;16.30;99.90
76787;DHT22;65739;51.482;5.702;2023-07-16T03:02:17;16.30;99.90
76787;DHT22;65739;51.482;5.702;2023-07-16T03:04:42;16.30;99.90
76787;DHT22;65739;51.482;5.702;2023-07-16T03:07:08;16.20;99.90
76787;DHT22;65739;51.482;5.702;2023-07-16T03:09:33;16.10;99.90
76787;DHT22;65739;51.482;5.702;2023-07-16T03:11:59;16.10;99.90
76787;DHT22;65739;51.482;5.702;2023-07-16T03:14:24;16.00;99.90
76787;DHT22;65739;51.482;5.702;2023-07-16T03:16:50;15.90;99.90
76787;DHT22;65739;51.482;5.702;2023-07-16T03:19:15;15.90;99.90
76787;DHT22;65739;51.482;5.702;2023-07-16T03:21:41;15.90;99.90
76787;DHT22;65739;51.482;5.702;2023-07-16T03:24:06;15.90;99.90
76787;DHT22;65739;51.482;5.702;2023-07-16T03:26:32;15.80;99.90
76787;DHT22;65739;51.482;5.702;2023-07-16T03:28:57;15.80;99.90
76787;DHT22;65739;51.482;5.702;2023-07-16T03:31:23;15.80;99.90
76787;DHT22;65739;51.482;5.702;2023-07-16T03:33:48;15.60;99.90
76787;DHT22;65739;51.482;5.702;2023-07-16T03:36:14;15.60;99.90
76787;DHT22;65739;51.482;5.702;2023-07-16T03:38:40;15.60;99.90
76787;DHT22;65739;51.482;5.702;2023-07-16T03:41:05;15.50;99.90
76787;DHT22;65739;51.482;5.702;2023-07-16T03:43:31;15.50;99.90
76787;DHT22;65739;51.482;5.702;2023-07-16T03:45:56;15.40;99.90
76787;DHT22;65739;51.482;5.702;2023-07-16T03:48:22;15.30;99.90
76787;DHT22;65739;51.482;5.702;2023-07-16T03:50:48;15.30;99.90
76787;DHT22;65739;51.482;5.702;2023-07-16T03:53:13;15.20;99.90
76787;DHT22;65739;51.482;5.702;2023-07-16T03:55:39;15.20;99.90
76787;DHT22;65739;51.482;5.702;2023-07-16T03:58:04;15.10;99.90
76787;DHT22;65739;51.482;5.702;2023-07-16T04:00:30;15.10;99.90
76787;DHT22;65739;51.482;5.702;2023-07-16T04:02:55;15.10;99.90
76787;DHT22;65739;51.482;5.702;2023-07-16T04:05:21;15.10;99.90
76787;DHT22;65739;51.482;5.702;2023-07-16T04:07:46;15.10;99.90
76787;DHT22;65739;51.482;5.702;2023-07-16T04:10:12;15.10;99.90
76787;DHT22;65739;51.482;5.702;2023-07-16T04:12:37;15.10;99.90
76787;DHT22;65739;51.482;5.702;2023-07-16T04:15:07;15.10;99.90
76787;DHT22;65739;51.482;5.702;2023-07-16T04:17:33;15.10;99.90
76787;DHT22;65739;51.482;5.702;2023-07-16T04:19:58;15.10;99.90
76787;DHT22;65739;51.482;5.702;2023-07-16T04:22:24;15.10;99.90
76787;DHT22;65739;51.482;5.702;2023-07-16T04:24:49;15.10;99.90
76787;DHT22;65739;51.482;5.702;2023-07-16T04:27:15;15.10;99.90
76787;DHT22;65739;51.482;5.702;2023-07-16T04:29:40;15.10;99.90
76787;DHT22;65739;51.482;5.702;2023-07-16T04:32:06;15.00;99.90
76787;DHT22;65739;51.482;5.702;2023-07-16T04:34:31;15.10;99.90
76787;DHT22;65739;51.482;5.702;2023-07-16T04:36:57;15.10;99.90
76787;DHT22;65739;51.482;5.702;2023-07-16T04:39:22;15.10;99.90
76787;DHT22;65739;51.482;5.702;2023-07-16T04:41:48;15.20;99.90
76787;DHT22;65739;51.482;5.702;2023-07-16T04:44:13;15.10;99.90
76787;DHT22;65739;51.482;5.702;2023-07-16T04:46:39;15.10;99.90
76787;DHT22;65739;51.482;5.702;2023-07-16T04:49:05;15.10;99.90
76787;DHT22;65739;51.482;5.702;2023-07-16T04:51:31;15.20;99.90
76787;DHT22;65739;51.482;5.702;2023-07-16T04:53:57;15.20;99.90
76787;DHT22;65739;51.482;5.702;2023-07-16T04:56:22;15.30;99.90
76787;DHT22;65739;51.482;5.702;2023-07-16T04:58:48;15.40;99.90
76787;DHT22;65739;51.482;5.702;2023-07-16T05:01:13;15.40;99.90
76787;DHT22;65739;51.482;5.702;2023-07-16T05:03:39;15.40;99.90
76787;DHT22;65739;51.482;5.702;2023-07-16T05:06:05;15.50;99.90
76787;DHT22;65739;51.482;5.702;2023-07-16T05:08:30;15.50;99.90
76787;DHT22;65739;51.482;5.702;2023-07-16T05:10:56;15.50;99.90
76787;DHT22;65739;51.482;5.702;2023-07-16T05:13:22;15.60;99.90
76787;DHT22;65739;51.482;5.702;2023-07-16T05:15:47;15.50;99.90
76787;DHT22;65739;51.482;5.702;2023-07-16T05:18:13;15.50;99.90
76787;DHT22;65739;51.482;5.702;2023-07-16T05:20:38;15.50;99.90
76787;DHT22;65739;51.482;5.702;2023-07-16T05:23:04;15.60;99.90
76787;DHT22;65739;51.482;5.702;2023-07-16T05:25:30;15.60;99.90
76787;DHT22;65739;51.482;5.702;2023-07-16T05:27:55;15.60;99.90
76787;DHT22;65739;51.482;5.702;2023-07-16T05:30:21;15.70;99.90
76787;DHT22;65739;51.482;5.702;2023-07-16T05:32:47;15.80;99.90
76787;DHT22;65739;51.482;5.702;2023-07-16T05:35:12;15.80;99.90
76787;DHT22;65739;51.482;5.702;2023-07-16T05:37:38;15.80;99.90
76787;DHT22;65739;51.482;5.702;2023-07-16T05:40:04;15.90;99.90
76787;DHT22;65739;51.482;5.702;2023-07-16T05:42:30;15.90;99.90
76787;DHT22;65739;51.482;5.702;2023-07-16T05:44:55;16.00;99.90
76787;DHT22;65739;51.482;5.702;2023-07-16T05:47:21;16.00;99.90
76787;DHT22;65739;51.482;5.702;2023-07-16T05:49:47;16.10;99.90
76787;DHT22;65739;51.482;5.702;2023-07-16T05:52:12;16.20;99.90
76787;DHT22;65739;51.482;5.702;2023-07-16T05:54:38;16.20;99.90
76787;DHT22;65739;51.482;5.702;2023-07-16T05:57:04;16.30;99.90
76787;DHT22;65739;51.482;5.702;2023-07-16T05:59:30;16.40;99.90
76787;DHT22;65739;51.482;5.702;2023-07-16T06:01:55;16.50;99.90
76787;DHT22;65739;51.482;5.702;2023-07-16T06:04:23;16.60;99.90
76787;DHT22;65739;51.482;5.702;2023-07-16T06:06:48;16.60;99.90
76787;DHT22;65739;51.482;5.702;2023-07-16T06:09:14;16.70;99.90
76787;DHT22;65739;51.482;5.702;2023-07-16T06:11:39;16.70;99.90
76787;DHT22;65739;51.482;5.702;2023-07-16T06:14:05;16.70;99.90
76787;DHT22;65739;51.482;5.702;2023-07-16T06:16:30;16.80;99.90
76787;DHT22;65739;51.482;5.702;2023-07-16T06:18:56;16.90;99.90
76787;DHT22;65739;51.482;5.702;2023-07-16T06:21:21;16.90;99.90
76787;DHT22;65739;51.482;5.702;2023-07-16T06:23:47;17.10;99.90
76787;DHT22;65739;51.482;5.702;2023-07-16T06:26:12;17.10;99.90
76787;DHT22;65739;51.482;5.702;2023-07-16T06:28:38;17.10;99.90
76787;DHT22;65739;51.482;5.702;2023-07-16T06:31:03;17.20;99.90
76787;DHT22;65739;51.482;5.702;2023-07-16T06:33:29;17.20;99.90
76787;DHT22;65739;51.482;5.702;2023-07-16T06:35:54;17.30;99.90
76787;DHT22;65739;51.482;5.702;2023-07-16T06:38:20;17.20;99.90
76787;DHT22;65739;51.482;5.702;2023-07-16T06:40:46;17.30;99.90
76787;DHT22;65739;51.482;5.702;2023-07-16T06:43:13;17.30;99.90
76787;DHT22;65739;51.482;5.702;2023-07-16T06:45:38;17.30;99.90
76787;DHT22;65739;51.482;5.702;2023-07-16T06:48:04;17.30;99.90
76787;DHT22;65739;51.482;5.702;2023-07-16T06:50:30;17.20;99.90
76787;DHT22;65739;51.482;5.702;2023-07-16T06:52:55;17.30;99.90
76787;DHT22;65739;51.482;5.702;2023-07-16T06:55:21;17.40;99.90
76787;DHT22;65739;51.482;5.702;2023-07-16T06:57:46;17.40;99.90
76787;DHT22;65739;51.482;5.702;2023-07-16T07:00:12;17.40;99.90
76787;DHT22;65739;51.482;5.702;2023-07-16T07:02:37;17.50;99.90
76787;DHT22;65739;51.482;5.702;2023-07-16T07:05:03;17.50;99.90
76787;DHT22;65739;51.482;5.702;2023-07-16T07:07:29;17.50;99.90
76787;DHT22;65739;51.482;5.702;2023-07-16T07:09:54;17.70;99.90
76787;DHT22;65739;51.482;5.702;2023-07-16T07:12:20;17.80;99.90
76787;DHT22;65739;51.482;5.702;2023-07-16T07:14:47;17.80;99.90
76787;DHT22;65739;51.482;5.702;2023-07-16T07:17:13;17.80;99.90
76787;DHT22;65739;51.482;5.702;2023-07-16T07:19:39;17.80;99.90
76787;DHT22;65739;51.482;5.702;2023-07-16T07:22:04;17.90;99.90
76787;DHT22;65739;51.482;5.702;2023-07-16T07:24:30;17.90;99.90
76787;DHT22;65739;51.482;5.702;2023-07-16T07:26:55;18.00;99.90
76787;DHT22;65739;51.482;5.702;2023-07-16T07:29:21;18.00;99.90
76787;DHT22;65739;51.482;5.702;2023-07-16T07:31:46;18.00;99.90
76787;DHT22;65739;51.482;5.702;2023-07-16T07:34:12;18.10;99.90
76787;DHT22;65739;51.482;5.702;2023-07-16T07:36:37;18.10;99.90
76787;DHT22;65739;51.482;5.702;2023-07-16T07:39:03;18.30;99.90
76787;DHT22;65739;51.482;5.702;2023-07-16T07:41:28;18.40;99.90
76787;DHT22;65739;51.482;5.702;2023-07-16T07:43:54;18.50;99.90
76787;DHT22;65739;51.482;5.702;2023-07-16T07:46:19;18.60;99.90
76787;DHT22;65739;51.482;5.702;2023-07-16T07:48:45;18.60;99.90
76787;DHT22;65739;51.482;5.702;2023-07-16T07:51:10;18.70;99.90
76787;DHT22;65739;51.482;5.702;2023-07-16T07:53:36;18.80;99.90
76787;DHT22;65739;51.482;5.702;2023-07-16T07:56:01;19.00;99.90
76787;DHT22;65739;51.482;5.702;2023-07-16T07:58:27;19.20;99.90
76787;DHT22;65739;51.482;5.702;2023-07-16T08:00:52;19.30;99.90
76787;DHT22;65739;51.482;5.702;2023-07-16T08:03:18;19.30;99.90
76787;DHT22;65739;51.482;5.702;2023-07-16T08:05:43;19.40;99.90
76787;DHT22;65739;51.482;5.702;2023-07-16T08:08:09;19.50;99.90
76787;DHT22;65739;51.482;5.702;2023-07-16T08:10:34;19.70;99.90
76787;DHT22;65739;51.482;5.702;2023-07-16T08:13:00;19.90;99.90
76787;DHT22;65739;51.482;5.702;2023-07-16T08:15:25;20.00;99.90
76787;DHT22;65739;51.482;5.702;2023-07-16T08:17:51;20.00;99.90
76787;DHT22;65739;51.482;5.702;2023-07-16T08:20:17;20.20;99.90
76787;DHT22;65739;51.482;5.702;2023-07-16T08:22:42;20.00;99.90
76787;DHT22;65739;51.482;5.702;2023-07-16T08:25:08;20.10;99.90
76787;DHT22;65739;51.482;5.702;2023-07-16T08:27:34;20.10;99.90
76787;DHT22;65739;51.482;5.702;2023-07-16T08:29:59;20.20;99.90
76787;DHT22;65739;51.482;5.702;2023-07-16T08:32:25;20.40;99.90
76787;DHT22;65739;51.482;5.702;2023-07-16T08:34:50;20.60;99.90
76787;DHT22;65739;51.482;5.702;2023-07-16T08:37:16;20.90;99.90
76787;DHT22;65739;51.482;5.702;2023-07-16T08:39:41;20.90;99.90
76787;DHT22;65739;51.482;5.702;2023-07-16T08:42:09;20.70;99.90
76787;DHT22;65739;51.482;5.702;2023-07-16T08:44:37;20.80;99.90
76787;DHT22;65739;51.482;5.702;2023-07-16T08:47:03;20.90;99.90
76787;DHT22;65739;51.482;5.702;2023-07-16T08:49:30;21.10;99.90
76787;DHT22;65739;51.482;5.702;2023-07-16T08:51:56;21.20;99.90
76787;DHT22;65739;51.482;5.702;2023-07-16T08:54:22;21.30;99.90
76787;DHT22;65739;51.482;5.702;2023-07-16T08:56:49;21.30;99.90
76787;DHT22;65739;51.482;5.702;2023-07-16T08:59:15;21.30;99.90
76787;DHT22;65739;51.482;5.702;2023-07-16T09:01:41;21.60;99.90
76787;DHT22;65739;51.482;5.702;2023-07-16T09:04:07;21.70;99.90
76787;DHT22;65739;51.482;5.702;2023-07-16T09:06:33;21.40;99.90
76787;DHT22;65739;51.482;5.702;2023-07-16T09:08:59;21.50;99.90
76787;DHT22;65739;51.482;5.702;2023-07-16T09:11:24;21.60;99.90
76787;DHT22;65739;51.482;5.702;2023-07-16T09:13:50;21.50;99.90
76787;DHT22;65739;51.482;5.702;2023-07-16T09:16:18;21.40;99.90
76787;DHT22;65739;51.482;5.702;2023-07-16T09:18:44;21.60;99.90
76787;DHT22;65739;51.482;5.702;2023-07-16T09:21:09;21.80;99.90
76787;DHT22;65739;51.482;5.702;2023-07-16T09:23:35;21.90;99.90
76787;DHT22;65739;51.482;5.702;2023-07-16T09:26:00;22.30;99.90
76787;DHT22;65739;51.482;5.702;2023-07-16T09:28:26;22.30;99.90
76787;DHT22;65739;51.482;5.702;2023-07-16T09:30:52;22.60;99.90
76787;DHT22;65739;51.482;5.702;2023-07-16T09:33:19;22.70;99.90
76787;DHT22;65739;51.482;5.702;2023-07-16T09:35:48;22.80;99.90
76787;DHT22;65739;51.482;5.702;2023-07-16T09:38:14;23.20;99.90
76787;DHT22;65739;51.482;5.702;2023-07-16T09:40:40;22.60;99.90
76787;DHT22;65739;51.482;5.702;2023-07-16T09:43:09;22.30;99.90
76787;DHT22;65739;51.482;5.702;2023-07-16T09:45:35;22.30;99.90
76787;DHT22;65739;51.482;5.702;2023-07-16T09:48:01;22.20;99.90
76787;DHT22;65739;51.482;5.702;2023-07-16T09:50:32;22.00;99.90
76787;DHT22;65739;51.482;5.702;2023-07-16T09:52:59;22.10;99.90
76787;DHT22;65739;51.482;5.702;2023-07-16T09:55:25;22.10;99.90
76787;DHT22;65739;51.482;5.702;2023-07-16T09:57:56;21.90;99.90
76787;DHT22;65739;51.482;5.702;2023-07-16T10:00:23;21.90;99.90
76787;DHT22;65739;51.482;5.702;2023-07-16T10:02:51;22.40;99.90
76787;DHT22;65739;51.482;5.702;2023-07-16T10:05:25;22.20;99.90
76787;DHT22;65739;51.482;5.702;2023-07-16T10:07:57;22.10;99.90
76787;DHT22;65739;51.482;5.702;2023-07-16T10:10:38;21.80;99.90
76787;DHT22;65739;51.482;5.702;2023-07-16T10:13:07;21.80;99.90
76787;DHT22;65739;51.482;5.702;2023-07-16T10:15:33;21.90;99.90
76787;DHT22;65739;51.482;5.702;2023-07-16T10:17:59;22.00;99.90
76787;DHT22;65739;51.482;5.702;2023-07-16T10:20:33;22.20;99.90
76787;DHT22;65739;51.482;5.702;2023-07-16T10:22:59;21.90;99.90
76787;DHT22;65739;51.482;5.702;2023-07-16T10:25:34;21.60;99.90
76787;DHT22;65739;51.482;5.702;2023-07-16T10:28:00;21.60;99.90
76787;DHT22;65739;51.482;5.702;2023-07-16T10:30:25;21.60;99.90
76787;DHT22;65739;51.482;5.702;2023-07-16T10:32:51;21.70;99.90
76787;DHT22;65739;51.482;5.702;2023-07-16T10:35:20;21.60;99.90
76787;DHT22;65739;51.482;5.702;2023-07-16T10:37:45;21.60;99.90
76787;DHT22;65739;51.482;5.702;2023-07-16T10:40:13;21.60;99.90
76787;DHT22;65739;51.482;5.702;2023-07-16T10:42:41;21.70;99.90
76787;DHT22;65739;51.482;5.702;2023-07-16T10:45:08;21.70;99.90
76787;DHT22;65739;51.482;5.702;2023-07-16T10:47:36;21.60;99.90
76787;DHT22;65739;51.482;5.702;2023-07-16T10:50:07;21.40;99.90
76787;DHT22;65739;51.482;5.702;2023-07-16T10:52:34;21.20;99.90
76787;DHT22;65739;51.482;5.702;2023-07-16T10:55:00;21.30;99.90
76787;DHT22;65739;51.482;5.702;2023-07-16T10:57:26;21.50;99.90
76787;DHT22;65739;51.482;5.702;2023-07-16T10:59:54;21.70;99.90
76787;DHT22;65739;51.482;5.702;2023-07-16T11:02:21;21.90;99.90
76787;DHT22;65739;51.482;5.702;2023-07-16T11:04:47;22.00;99.90
76787;DHT22;65739;51.482;5.702;2023-07-16T11:07:14;22.00;99.90
76787;DHT22;65739;51.482;5.702;2023-07-16T11:09:54;21.70;99.90
76787;DHT22;65739;51.482;5.702;2023-07-16T11:12:21;21.70;99.90
76787;DHT22;65739;51.482;5.702;2023-07-16T11:14:54;21.50;99.90
76787;DHT22;65739;51.482;5.702;2023-07-16T11:17:21;21.50;99.90
76787;DHT22;65739;51.482;5.702;2023-07-16T11:19:49;21.70;99.90
76787;DHT22;65739;51.482;5.702;2023-07-16T11:22:15;21.90;99.90
76787;DHT22;65739;51.482;5.702;2023-07-16T11:24:46;21.90;99.90
76787;DHT22;65739;51.482;5.702;2023-07-16T11:27:18;22.00;99.90
76787;DHT22;65739;51.482;5.702;2023-07-16T11:29:49;22.40;99.90
76787;DHT22;65739;51.482;5.702;2023-07-16T11:32:32;22.40;99.90
76787;DHT22;65739;51.482;5.702;2023-07-16T11:34:59;22.20;99.90
76787;DHT22;65739;51.482;5.702;2023-07-16T11:37:25;22.30;99.90
76787;DHT22;65739;51.482;5.702;2023-07-16T11:40:04;22.10;99.90
76787;DHT22;65739;51.482;5.702;2023-07-16T11:42:32;22.00;99.90
76787;DHT22;65739;51.482;5.702;2023-07-16T11:44:58;21.80;99.90
76787;DHT22;65739;51.482;5.702;2023-07-16T11:47:25;21.80;99.90
76787;DHT22;65739;51.482;5.702;2023-07-16T11:49:51;21.60;99.90
76787;DHT22;65739;51.482;5.702;2023-07-16T11:52:22;21.70;99.90
76787;DHT22;65739;51.482;5.702;2023-07-16T11:54:48;21.70;99.90
76787;DHT22;65739;51.482;5.702;2023-07-16T11:57:14;21.60;99.90
76787;DHT22;65739;51.482;5.702;2023-07-16T11:59:39;21.90;99.90
76787;DHT22;65739;51.482;5.702;2023-07-16T12:02:05;21.90;99.90
76787;DHT22;65739;51.482;5.702;2023-07-16T12:04:31;21.90;99.90
76787;DHT22;65739;51.482;5.702;2023-07-16T12:06:56;22.30;99.90
76787;DHT22;65739;51.482;5.702;2023-07-16T12:09:22;22.30;99.90
76787;DHT22;65739;51.482;5.702;2023-07-16T12:11:47;22.50;99.90
76787;DHT22;65739;51.482;5.702;2023-07-16T12:14:13;22.50;99.90
76787;DHT22;65739;51.482;5.702;2023-07-16T12:16:39;22.50;99.90
76787;DHT22;65739;51.482;5.702;2023-07-16T12:19:06;22.70;99.90
76787;DHT22;65739;51.482;5.702;2023-07-16T12:21:32;22.60;99.90
76787;DHT22;65739;51.482;5.702;2023-07-16T12:23:57;22.80;99.90
76787;DHT22;65739;51.482;5.702;2023-07-16T12:26:23;22.80;99.90
76787;DHT22;65739;51.482;5.702;2023-07-16T12:28:49;22.70;99.90
76787;DHT22;65739;51.482;5.702;2023-07-16T12:31:14;22.50;99.90
76787;DHT22;65739;51.482;5.702;2023-07-16T12:33:41;22.50;99.90
76787;DHT22;65739;51.482;5.702;2023-07-16T12:36:07;22.90;99.90
76787;DHT22;65739;51.482;5.702;2023-07-16T12:38:32;23.50;99.90
76787;DHT22;65739;51.482;5.702;2023-07-16T12:40:58;23.70;99.90
76787;DHT22;65739;51.482;5.702;2023-07-16T12:43:24;23.30;99.90
76787;DHT22;65739;51.482;5.702;2023-07-16T12:45:49;23.40;99.90
76787;DHT22;65739;51.482;5.702;2023-07-16T12:48:15;23.70;99.90
76787;DHT22;65739;51.482;5.702;2023-07-16T12:50:40;23.50;99.90
76787;DHT22;65739;51.482;5.702;2023-07-16T12:53:06;23.20;99.90
76787;DHT22;65739;51.482;5.702;2023-07-16T12:55:31;23.40;99.90
76787;DHT22;65739;51.482;5.702;2023-07-16T12:57:59;23.30;99.90
76787;DHT22;65739;51.482;5.702;2023-07-16T13:00:24;23.00;99.90
76787;DHT22;65739;51.482;5.702;2023-07-16T13:02:50;22.70;99.90
76787;DHT22;65739;51.482;5.702;2023-07-16T13:05:16;22.30;99.90
76787;DHT22;65739;51.482;5.702;2023-07-16T13:07:41;22.70;99.90
76787;DHT22;65739;51.482;5.702;2023-07-16T13:10:08;23.60;99.90
76787;DHT22;65739;51.482;5.702;2023-07-16T13:12:34;24.40;99.90
76787;DHT22;65739;51.482;5.702;2023-07-16T13:15:00;24.50;99.90
76787;DHT22;65739;51.482;5.702;2023-07-16T13:17:25;24.90;99.90
76787;DHT22;65739;51.482;5.702;2023-07-16T13:19:51;24.70;99.90
76787;DHT22;65739;51.482;5.702;2023-07-16T13:22:16;25.00;99.90
76787;DHT22;65739;51.482;5.702;2023-07-16T13:24:41;24.50;99.90
76787;DHT22;65739;51.482;5.702;2023-07-16T13:27:10;24.40;99.90
76787;DHT22;65739;51.482;5.702;2023-07-16T13:29:44;24.00;99.90
76787;DHT22;65739;51.482;5.702;2023-07-16T13:32:10;24.20;99.90
76787;DHT22;65739;51.482;5.702;2023-07-16T13:34:35;24.20;99.90
76787;DHT22;65739;51.482;5.702;2023-07-16T13:37:01;24.20;99.90
76787;DHT22;65739;51.482;5.702;2023-07-16T13:39:26;24.40;99.90
76787;DHT22;65739;51.482;5.702;2023-07-16T13:41:52;24.50;99.90
76787;DHT22;65739;51.482;5.702;2023-07-16T13:44:17;24.90;99.90
76787;DHT22;65739;51.482;5.702;2023-07-16T13:46:43;24.80;99.90
76787;DHT22;65739;51.482;5.702;2023-07-16T13:49:09;24.60;99.90
76787;DHT22;65739;51.482;5.702;2023-07-16T13:51:34;24.20;99.90
76787;DHT22;65739;51.482;5.702;2023-07-16T13:54:00;24.10;99.90
76787;DHT22;65739;51.482;5.702;2023-07-16T13:56:25;24.10;99.90
76787;DHT22;65739;51.482;5.702;2023-07-16T13:58:51;24.60;99.90
76787;DHT22;65739;51.482;5.702;2023-07-16T14:01:16;24.20;99.90
76787;DHT22;65739;51.482;5.702;2023-07-16T14:03:43;24.40;99.90
76787;DHT22;65739;51.482;5.702;2023-07-16T14:06:09;24.20;99.90
76787;DHT22;65739;51.482;5.702;2023-07-16T14:08:34;24.10;99.90
76787;DHT22;65739;51.482;5.702;2023-07-16T14:11:01;24.30;99.90
76787;DHT22;65739;51.482;5.702;2023-07-16T14:13:27;24.40;99.90
76787;DHT22;65739;51.482;5.702;2023-07-16T14:15:52;24.40;99.90
76787;DHT22;65739;51.482;5.702;2023-07-16T14:18:18;24.40;99.90
76787;DHT22;65739;51.482;5.702;2023-07-16T14:20:43;24.90;99.90
76787;DHT22;65739;51.482;5.702;2023-07-16T14:23:09;24.50;99.90
76787;DHT22;65739;51.482;5.702;2023-07-16T14:25:34;24.30;99.90
76787;DHT22;65739;51.482;5.702;2023-07-16T14:28:00;24.40;99.90
76787;DHT22;65739;51.482;5.702;2023-07-16T14:30:25;24.60;99.90
76787;DHT22;65739;51.482;5.702;2023-07-16T14:32:51;25.10;99.90
76787;DHT22;65739;51.482;5.702;2023-07-16T14:35:16;25.50;99.90
76787;DHT22;65739;51.482;5.702;2023-07-16T14:37:42;25.20;99.90
76787;DHT22;65739;51.482;5.702;2023-07-16T14:40:08;24.80;99.90
76787;DHT22;65739;51.482;5.702;2023-07-16T14:42:34;24.50;99.90
76787;DHT22;65739;51.482;5.702;2023-07-16T14:45:00;24.20;99.90
76787;DHT22;65739;51.482;5.702;2023-07-16T14:47:25;23.90;99.90
76787;DHT22;65739;51.482;5.702;2023-07-16T14:49:51;23.90;99.90
76787;DHT22;65739;51.482;5.702;2023-07-16T14:52:16;24.10;99.90
76787;DHT22;65739;51.482;5.702;2023-07-16T14:54:42;24.00;99.90
76787;DHT22;65739;51.482;5.702;2023-07-16T14:57:07;23.90;99.90
76787;DHT22;65739;51.482;5.702;2023-07-16T14:59:33;23.60;99.90
76787;DHT22;65739;51.482;5.702;2023-07-16T15:01:59;23.70;99.90
76787;DHT22;65739;51.482;5.702;2023-07-16T15:04:25;23.80;99.90
76787;DHT22;65739;51.482;5.702;2023-07-16T15:06:51;23.90;99.90
76787;DHT22;65739;51.482;5.702;2023-07-16T15:09:16;24.10;99.90
76787;DHT22;65739;51.482;5.702;2023-07-16T15:11:43;24.10;99.90
76787;DHT22;65739;51.482;5.702;2023-07-16T15:14:08;24.60;99.90
76787;DHT22;65739;51.482;5.702;2023-07-16T15:16:34;24.30;99.90
76787;DHT22;65739;51.482;5.702;2023-07-16T15:18:59;23.90;99.90
76787;DHT22;65739;51.482;5.702;2023-07-16T15:21:25;23.90;99.90
76787;DHT22;65739;51.482;5.702;2023-07-16T15:23:50;23.80;99.90
76787;DHT22;65739;51.482;5.702;2023-07-16T15:26:16;23.80;99.90